sensor_id;sensor_type;location;lat;lon;timestamp;P1;durP1;ratioP1;P2;durP2;ratioP2
61483;SDS011;47349;55.640;37.692;2023-07-13T00:01:03;9.50;;;3.70;;
61483;SDS011;47349;55.640;37.692;2023-07-13T00:03:31;4.20;;;2.38;;
61483;SDS011;47349;55.640;37.692;2023-07-13T00:06:04;3.40;;;2.80;;
61483;SDS011;47349;55.640;37.692;2023-07-13T00:08:53;4.53;;;2.47;;
61483;SDS011;47349;55.640;37.692;2023-07-13T00:11:25;5.68;;;2.83;;
61483;SDS011;47349;55.640;37.692;2023-07-13T00:14:08;2.63;;;2.40;;
61483;SDS011;47349;55.640;37.692;2023-07-13T00:16:39;3.33;;;2.05;;
61483;SDS011;47349;55.640;37.692;2023-07-13T00:19:45;2.97;;;2.58;;
61483;SDS011;47349;55.640;37.692;2023-07-13T00:22:32;4.82;;;3.20;;
61483;SDS011;47349;55.640;37.692;2023-07-13T00:25:14;3.95;;;2.95;;
61483;SDS011;47349;55.640;37.692;2023-07-13T00:28:04;3.47;;;2.20;;
61483;SDS011;47349;55.640;37.692;2023-07-13T00:30:32;2.80;;;2.25;;
61483;SDS011;47349;55.640;37.692;2023-07-13T00:32:59;2.40;;;2.17;;
61483;SDS011;47349;55.640;37.692;2023-07-13T00:35:46;3.25;;;2.90;;
61483;SDS011;47349;55.640;37.692;2023-07-13T00:38:15;2.92;;;2.65;;
61483;SDS011;47349;55.640;37.692;2023-07-13T00:40:42;2.05;;;1.88;;
61483;SDS011;47349;55.640;37.692;2023-07-13T00:43:14;3.63;;;2.80;;
61483;SDS011;47349;55.640;37.692;2023-07-13T00:48:12;3.65;;;2.40;;
61483;SDS011;47349;55.640;37.692;2023-07-13T00:50:44;2.67;;;2.33;;
61483;SDS011;47349;55.640;37.692;2023-07-13T00:53:15;4.30;;;2.67;;
61483;SDS011;47349;55.640;37.692;2023-07-13T00:55:43;2.60;;;2.40;;
61483;SDS011;47349;55.640;37.692;2023-07-13T00:58:11;2.95;;;2.30;;
61483;SDS011;47349;55.640;37.692;2023-07-13T01:00:38;12.45;;;4.38;;
61483;SDS011;47349;55.640;37.692;2023-07-13T01:03:07;3.22;;;2.92;;
61483;SDS011;47349;55.640;37.692;2023-07-13T01:05:35;3.25;;;2.83;;
61483;SDS011;47349;55.640;37.692;2023-07-13T01:08:03;3.00;;;2.70;;
61483;SDS011;47349;55.640;37.692;2023-07-13T01:10:33;4.93;;;3.25;;
61483;SDS011;47349;55.640;37.692;2023-07-13T01:13:06;3.13;;;2.28;;
61483;SDS011;47349;55.640;37.692;2023-07-13T01:18:07;2.63;;;2.33;;
61483;SDS011;47349;55.640;37.692;2023-07-13T01:20:37;4.85;;;2.67;;
61483;SDS011;47349;55.640;37.692;2023-07-13T01:23:06;3.08;;;2.72;;
61483;SDS011;47349;55.640;37.692;2023-07-13T01:25:35;2.10;;;1.83;;
61483;SDS011;47349;55.640;37.692;2023-07-13T01:28:05;3.45;;;2.40;;
61483;SDS011;47349;55.640;37.692;2023-07-13T01:30:37;4.18;;;2.83;;
61483;SDS011;47349;55.640;37.692;2023-07-13T01:33:07;3.38;;;2.55;;
61483;SDS011;47349;55.640;37.692;2023-07-13T01:35:36;4.05;;;3.25;;
61483;SDS011;47349;55.640;37.692;2023-07-13T01:38:04;4.30;;;3.10;;
61483;SDS011;47349;55.640;37.692;2023-07-13T01:40:32;6.28;;;3.47;;
61483;SDS011;47349;55.640;37.692;2023-07-13T01:42:59;4.20;;;2.80;;
61483;SDS011;47349;55.640;37.692;2023-07-13T01:45:27;6.80;;;3.05;;
61483;SDS011;47349;55.640;37.692;2023-07-13T01:47:54;4.38;;;2.50;;
61483;SDS011;47349;55.640;37.692;2023-07-13T01:50:22;3.65;;;3.00;;
61483;SDS011;47349;55.640;37.692;2023-07-13T01:52:49;4.82;;;3.08;;
61483;SDS011;47349;55.640;37.692;2023-07-13T01:55:17;4.43;;;3.00;;
61483;SDS011;47349;55.640;37.692;2023-07-13T01:57:45;3.70;;;2.63;;
61483;SDS011;47349;55.640;37.692;2023-07-13T02:00:13;4.45;;;3.30;;
61483;SDS011;47349;55.640;37.692;2023-07-13T02:02:46;3.47;;;3.17;;
61483;SDS011;47349;55.640;37.692;2023-07-13T02:05:14;4.03;;;2.88;;
61483;SDS011;47349;55.640;37.692;2023-07-13T02:07:42;4.18;;;3.05;;
61483;SDS011;47349;55.640;37.692;2023-07-13T02:10:10;2.75;;;2.35;;
61483;SDS011;47349;55.640;37.692;2023-07-13T02:12:38;6.53;;;2.28;;
61483;SDS011;47349;55.640;37.692;2023-07-13T02:15:06;3.75;;;2.10;;
61483;SDS011;47349;55.640;37.692;2023-07-13T02:17:34;6.82;;;2.47;;
61483;SDS011;47349;55.640;37.692;2023-07-13T02:20:03;6.18;;;3.40;;
61483;SDS011;47349;55.640;37.692;2023-07-13T02:22:32;3.90;;;2.97;;
61483;SDS011;47349;55.640;37.692;2023-07-13T02:24:59;8.82;;;2.90;;
61483;SDS011;47349;55.640;37.692;2023-07-13T02:27:29;3.50;;;2.65;;
61483;SDS011;47349;55.640;37.692;2023-07-13T02:29:56;4.10;;;2.70;;
61483;SDS011;47349;55.640;37.692;2023-07-13T02:32:24;4.93;;;3.10;;
61483;SDS011;47349;55.640;37.692;2023-07-13T02:34:53;3.53;;;2.88;;
61483;SDS011;47349;55.640;37.692;2023-07-13T02:37:21;6.95;;;3.65;;
61483;SDS011;47349;55.640;37.692;2023-07-13T02:39:48;9.00;;;3.63;;
61483;SDS011;47349;55.640;37.692;2023-07-13T02:42:15;7.35;;;2.70;;
61483;SDS011;47349;55.640;37.692;2023-07-13T02:44:43;3.55;;;2.47;;
61483;SDS011;47349;55.640;37.692;2023-07-13T02:47:11;2.75;;;2.40;;
61483;SDS011;47349;55.640;37.692;2023-07-13T02:49:39;4.25;;;3.30;;
61483;SDS011;47349;55.640;37.692;2023-07-13T02:52:07;5.45;;;3.40;;
61483;SDS011;47349;55.640;37.692;2023-07-13T02:54:34;3.47;;;2.72;;
61483;SDS011;47349;55.640;37.692;2023-07-13T02:57:01;6.53;;;3.55;;
61483;SDS011;47349;55.640;37.692;2023-07-13T02:59:29;4.50;;;3.42;;
61483;SDS011;47349;55.640;37.692;2023-07-13T03:01:56;6.15;;;3.25;;
61483;SDS011;47349;55.640;37.692;2023-07-13T03:04:24;4.57;;;2.80;;
61483;SDS011;47349;55.640;37.692;2023-07-13T03:06:51;3.90;;;2.88;;
61483;SDS011;47349;55.640;37.692;2023-07-13T03:09:19;6.28;;;3.22;;
61483;SDS011;47349;55.640;37.692;2023-07-13T03:11:54;3.17;;;2.67;;
61483;SDS011;47349;55.640;37.692;2023-07-13T03:14:28;4.30;;;2.80;;
61483;SDS011;47349;55.640;37.692;2023-07-13T03:16:56;3.53;;;2.40;;
61483;SDS011;47349;55.640;37.692;2023-07-13T03:19:27;6.53;;;3.15;;
61483;SDS011;47349;55.640;37.692;2023-07-13T03:21:54;6.40;;;2.88;;
61483;SDS011;47349;55.640;37.692;2023-07-13T04:12:05;4.05;;;2.75;;
61483;SDS011;47349;55.640;37.692;2023-07-13T04:23:32;3.65;;;2.90;;
61483;SDS011;47349;55.640;37.692;2023-07-13T04:27:57;3.80;;;2.60;;
61483;SDS011;47349;55.640;37.692;2023-07-13T04:41:05;3.85;;;2.47;;
61483;SDS011;47349;55.640;37.692;2023-07-13T04:43:34;6.07;;;3.17;;
61483;SDS011;47349;55.640;37.692;2023-07-13T04:53:36;6.70;;;3.78;;
61483;SDS011;47349;55.640;37.692;2023-07-13T04:56:05;4.00;;;3.35;;
61483;SDS011;47349;55.640;37.692;2023-07-13T04:58:33;5.50;;;3.42;;
61483;SDS011;47349;55.640;37.692;2023-07-13T05:01:03;13.10;;;5.72;;
61483;SDS011;47349;55.640;37.692;2023-07-13T05:09:52;3.83;;;2.90;;
61483;SDS011;47349;55.640;37.692;2023-07-13T05:19:22;4.13;;;3.10;;
61483;SDS011;47349;55.640;37.692;2023-07-13T05:21:50;12.65;;;3.80;;
61483;SDS011;47349;55.640;37.692;2023-07-13T05:24:39;8.63;;;3.78;;
61483;SDS011;47349;55.640;37.692;2023-07-13T05:27:30;5.97;;;4.53;;
61483;SDS011;47349;55.640;37.692;2023-07-13T05:30:15;8.63;;;3.70;;
61483;SDS011;47349;55.640;37.692;2023-07-13T05:32:57;4.10;;;2.88;;
61483;SDS011;47349;55.640;37.692;2023-07-13T05:35:25;12.73;;;3.90;;
61483;SDS011;47349;55.640;37.692;2023-07-13T05:37:52;5.75;;;3.72;;
61483;SDS011;47349;55.640;37.692;2023-07-13T05:40:48;5.03;;;3.42;;
61483;SDS011;47349;55.640;37.692;2023-07-13T05:44:13;3.42;;;2.95;;
61483;SDS011;47349;55.640;37.692;2023-07-13T05:47:02;7.25;;;3.65;;
61483;SDS011;47349;55.640;37.692;2023-07-13T05:49:51;5.25;;;3.10;;
61483;SDS011;47349;55.640;37.692;2023-07-13T05:53:01;7.57;;;3.10;;
61483;SDS011;47349;55.640;37.692;2023-07-13T05:55:49;7.45;;;4.68;;
61483;SDS011;47349;55.640;37.692;2023-07-13T05:58:34;5.85;;;3.25;;
61483;SDS011;47349;55.640;37.692;2023-07-13T06:01:12;3.20;;;2.42;;
61483;SDS011;47349;55.640;37.692;2023-07-13T06:03:44;7.40;;;3.50;;
61483;SDS011;47349;55.640;37.692;2023-07-13T06:06:12;3.28;;;2.70;;
61483;SDS011;47349;55.640;37.692;2023-07-13T06:08:56;4.10;;;2.28;;
61483;SDS011;47349;55.640;37.692;2023-07-13T06:11:31;4.13;;;2.70;;
61483;SDS011;47349;55.640;37.692;2023-07-13T06:14:12;4.43;;;2.80;;
61483;SDS011;47349;55.640;37.692;2023-07-13T06:16:57;9.85;;;4.70;;
61483;SDS011;47349;55.640;37.692;2023-07-13T06:19:28;8.52;;;3.70;;
61483;SDS011;47349;55.640;37.692;2023-07-13T06:22:10;3.85;;;2.72;;
61483;SDS011;47349;55.640;37.692;2023-07-13T06:25:01;2.85;;;2.20;;
61483;SDS011;47349;55.640;37.692;2023-07-13T06:27:46;3.45;;;2.40;;
61483;SDS011;47349;55.640;37.692;2023-07-13T06:30:32;7.45;;;3.25;;
61483;SDS011;47349;55.640;37.692;2023-07-13T06:33:14;13.45;;;5.50;;
61483;SDS011;47349;55.640;37.692;2023-07-13T06:35:57;12.85;;;4.10;;
61483;SDS011;47349;55.640;37.692;2023-07-13T06:38:40;5.75;;;3.10;;
61483;SDS011;47349;55.640;37.692;2023-07-13T06:41:23;6.28;;;3.17;;
61483;SDS011;47349;55.640;37.692;2023-07-13T06:44:13;3.10;;;2.22;;
61483;SDS011;47349;55.640;37.692;2023-07-13T06:46:43;4.22;;;3.08;;
61483;SDS011;47349;55.640;37.692;2023-07-13T06:49:11;6.32;;;3.08;;
61483;SDS011;47349;55.640;37.692;2023-07-13T06:51:54;6.53;;;2.85;;
61483;SDS011;47349;55.640;37.692;2023-07-13T06:54:24;4.63;;;2.42;;
61483;SDS011;47349;55.640;37.692;2023-07-13T06:57:07;3.70;;;2.50;;
61483;SDS011;47349;55.640;37.692;2023-07-13T07:00:04;8.52;;;3.33;;
61483;SDS011;47349;55.640;37.692;2023-07-13T07:03:09;5.00;;;2.80;;
61483;SDS011;47349;55.640;37.692;2023-07-13T07:05:48;2.97;;;2.28;;
61483;SDS011;47349;55.640;37.692;2023-07-13T07:11:23;5.40;;;2.45;;
61483;SDS011;47349;55.640;37.692;2023-07-13T07:13:52;4.30;;;2.63;;
61483;SDS011;47349;55.640;37.692;2023-07-13T07:16:39;4.47;;;2.63;;
61483;SDS011;47349;55.640;37.692;2023-07-13T07:20:36;6.88;;;2.88;;
61483;SDS011;47349;55.640;37.692;2023-07-13T07:23:19;3.38;;;2.47;;
61483;SDS011;47349;55.640;37.692;2023-07-13T07:25:50;4.68;;;2.78;;
61483;SDS011;47349;55.640;37.692;2023-07-13T07:28:35;4.68;;;2.78;;
61483;SDS011;47349;55.640;37.692;2023-07-13T07:31:27;5.07;;;3.03;;
61483;SDS011;47349;55.640;37.692;2023-07-13T07:34:04;9.10;;;3.42;;
61483;SDS011;47349;55.640;37.692;2023-07-13T07:36:34;3.55;;;2.50;;
61483;SDS011;47349;55.640;37.692;2023-07-13T07:43:31;5.40;;;2.85;;
61483;SDS011;47349;55.640;37.692;2023-07-13T07:46:02;3.42;;;2.70;;
61483;SDS011;47349;55.640;37.692;2023-07-13T07:49:39;5.03;;;2.70;;
61483;SDS011;47349;55.640;37.692;2023-07-13T07:52:53;5.65;;;2.65;;
61483;SDS011;47349;55.640;37.692;2023-07-13T07:56:10;3.50;;;2.58;;
61483;SDS011;47349;55.640;37.692;2023-07-13T08:02:47;5.32;;;3.67;;
61483;SDS011;47349;55.640;37.692;2023-07-13T08:05:53;7.82;;;3.33;;
61483;SDS011;47349;55.640;37.692;2023-07-13T08:08:40;9.52;;;3.80;;
61483;SDS011;47349;55.640;37.692;2023-07-13T08:11:20;6.45;;;3.33;;
61483;SDS011;47349;55.640;37.692;2023-07-13T08:13:51;8.68;;;2.88;;
61483;SDS011;47349;55.640;37.692;2023-07-13T08:16:26;7.93;;;3.03;;
61483;SDS011;47349;55.640;37.692;2023-07-13T08:35:36;6.75;;;2.80;;
61483;SDS011;47349;55.640;37.692;2023-07-13T08:39:56;2.45;;;2.20;;
61483;SDS011;47349;55.640;37.692;2023-07-13T08:43:51;6.47;;;3.08;;
61483;SDS011;47349;55.640;37.692;2023-07-13T08:49:06;3.60;;;2.78;;
61483;SDS011;47349;55.640;37.692;2023-07-13T08:53:08;4.03;;;2.80;;
61483;SDS011;47349;55.640;37.692;2023-07-13T08:55:45;4.72;;;2.80;;
61483;SDS011;47349;55.640;37.692;2023-07-13T08:59:48;6.70;;;3.10;;
61483;SDS011;47349;55.640;37.692;2023-07-13T09:02:45;7.22;;;3.10;;
61483;SDS011;47349;55.640;37.692;2023-07-13T09:06:04;9.43;;;4.15;;
61483;SDS011;47349;55.640;37.692;2023-07-13T09:14:59;5.82;;;3.13;;
61483;SDS011;47349;55.640;37.692;2023-07-13T09:17:49;4.30;;;3.20;;
61483;SDS011;47349;55.640;37.692;2023-07-13T09:20:35;7.25;;;3.33;;
61483;SDS011;47349;55.640;37.692;2023-07-13T09:23:28;9.90;;;4.10;;
61483;SDS011;47349;55.640;37.692;2023-07-13T09:26:22;9.48;;;4.05;;
61483;SDS011;47349;55.640;37.692;2023-07-13T09:29:33;8.48;;;5.65;;
61483;SDS011;47349;55.640;37.692;2023-07-13T09:32:35;3.80;;;3.03;;
61483;SDS011;47349;55.640;37.692;2023-07-13T09:35:30;6.90;;;3.92;;
61483;SDS011;47349;55.640;37.692;2023-07-13T09:38:04;6.60;;;4.43;;
61483;SDS011;47349;55.640;37.692;2023-07-13T09:44:28;8.35;;;5.13;;
61483;SDS011;47349;55.640;37.692;2023-07-13T09:47:18;5.47;;;3.47;;
61483;SDS011;47349;55.640;37.692;2023-07-13T09:50:15;6.32;;;4.03;;
61483;SDS011;47349;55.640;37.692;2023-07-13T09:52:46;5.55;;;3.80;;
61483;SDS011;47349;55.640;37.692;2023-07-13T09:55:35;4.70;;;3.90;;
61483;SDS011;47349;55.640;37.692;2023-07-13T10:00:40;4.18;;;3.55;;
61483;SDS011;47349;55.640;37.692;2023-07-13T10:05:47;5.53;;;3.53;;
61483;SDS011;47349;55.640;37.692;2023-07-13T10:08:21;5.80;;;4.53;;
61483;SDS011;47349;55.640;37.692;2023-07-13T10:10:53;9.77;;;4.55;;
61483;SDS011;47349;55.640;37.692;2023-07-13T10:13:29;9.20;;;5.20;;
61483;SDS011;47349;55.640;37.692;2023-07-13T10:16:04;7.57;;;5.18;;
61483;SDS011;47349;55.640;37.692;2023-07-13T10:18:44;7.03;;;4.40;;
61483;SDS011;47349;55.640;37.692;2023-07-13T10:21:16;5.60;;;4.20;;
61483;SDS011;47349;55.640;37.692;2023-07-13T10:26:47;9.23;;;4.82;;
61483;SDS011;47349;55.640;37.692;2023-07-13T10:29:19;4.60;;;3.53;;
61483;SDS011;47349;55.640;37.692;2023-07-13T10:31:49;5.60;;;4.20;;
61483;SDS011;47349;55.640;37.692;2023-07-13T10:34:17;9.93;;;4.50;;
61483;SDS011;47349;55.640;37.692;2023-07-13T10:36:47;5.88;;;4.18;;
61483;SDS011;47349;55.640;37.692;2023-07-13T10:39:25;4.90;;;3.70;;
61483;SDS011;47349;55.640;37.692;2023-07-13T10:41:58;5.40;;;3.63;;
61483;SDS011;47349;55.640;37.692;2023-07-13T10:44:29;7.22;;;4.65;;
61483;SDS011;47349;55.640;37.692;2023-07-13T10:46:59;5.60;;;4.47;;
61483;SDS011;47349;55.640;37.692;2023-07-13T10:49:29;4.55;;;3.53;;
61483;SDS011;47349;55.640;37.692;2023-07-13T10:51:59;5.70;;;3.80;;
61483;SDS011;47349;55.640;37.692;2023-07-13T10:54:27;3.58;;;2.80;;
61483;SDS011;47349;55.640;37.692;2023-07-13T10:57:19;8.18;;;5.25;;
61483;SDS011;47349;55.640;37.692;2023-07-13T11:02:41;4.65;;;3.50;;
61483;SDS011;47349;55.640;37.692;2023-07-13T11:05:17;5.47;;;4.50;;
61483;SDS011;47349;55.640;37.692;2023-07-13T11:08:12;7.00;;;4.60;;
61483;SDS011;47349;55.640;37.692;2023-07-13T11:10:49;6.83;;;3.80;;
61483;SDS011;47349;55.640;37.692;2023-07-13T11:18:45;9.23;;;5.35;;
61483;SDS011;47349;55.640;37.692;2023-07-13T11:21:19;7.55;;;4.60;;
61483;SDS011;47349;55.640;37.692;2023-07-13T11:24:04;7.78;;;5.20;;
61483;SDS011;47349;55.640;37.692;2023-07-13T11:26:50;7.82;;;5.47;;
61483;SDS011;47349;55.640;37.692;2023-07-13T11:31:59;8.35;;;4.32;;
61483;SDS011;47349;55.640;37.692;2023-07-13T11:51:17;9.63;;;5.45;;
61483;SDS011;47349;55.640;37.692;2023-07-13T11:53:48;9.07;;;4.45;;
61483;SDS011;47349;55.640;37.692;2023-07-13T11:56:17;6.60;;;4.30;;
61483;SDS011;47349;55.640;37.692;2023-07-13T11:58:47;6.00;;;4.78;;
61483;SDS011;47349;55.640;37.692;2023-07-13T12:04:19;5.88;;;3.35;;
61483;SDS011;47349;55.640;37.692;2023-07-13T12:13:10;6.30;;;4.05;;
61483;SDS011;47349;55.640;37.692;2023-07-13T12:19:00;8.35;;;4.22;;
61483;SDS011;47349;55.640;37.692;2023-07-13T12:21:30;7.50;;;4.20;;
61483;SDS011;47349;55.640;37.692;2023-07-13T13:20:17;9.50;;;6.35;;
61483;SDS011;47349;55.640;37.692;2023-07-13T13:22:47;8.52;;;4.90;;
61483;SDS011;47349;55.640;37.692;2023-07-13T13:52:12;8.95;;;5.30;;
61483;SDS011;47349;55.640;37.692;2023-07-13T13:57:56;8.40;;;4.95;;
61483;SDS011;47349;55.640;37.692;2023-07-13T14:00:26;8.82;;;5.82;;
61483;SDS011;47349;55.640;37.692;2023-07-13T15:08:39;7.82;;;4.47;;
61483;SDS011;47349;55.640;37.692;2023-07-13T15:11:30;6.88;;;4.78;;
61483;SDS011;47349;55.640;37.692;2023-07-13T15:49:22;7.63;;;4.63;;
61483;SDS011;47349;55.640;37.692;2023-07-13T17:26:29;12.82;;;7.78;;
61483;SDS011;47349;55.640;37.692;2023-07-13T21:16:55;6.85;;;3.67;;
61483;SDS011;47349;55.640;37.692;2023-07-13T21:22:49;5.90;;;4.45;;
61483;SDS011;47349;55.640;37.692;2023-07-13T21:38:58;6.90;;;4.50;;
61483;SDS011;47349;55.640;37.692;2023-07-13T21:41:32;5.25;;;4.32;;
61483;SDS011;47349;55.640;37.692;2023-07-13T23:59:12;6.53;;;5.35;;
